Time;durP1;ratioP1;P1;durP2;ratioP2;P2;SDS_P1;SDS_P2;PMS_P1;PMS_P2;Temp;Humidity;BMP_temperature;BMP_pressure;BME280_temperature;BME280_humidity;BME280_pressure;Samples;Min_cycle;Max_cycle;Signal;HPM_P1;HPM_P2
2022/04/03 00:00:13;;;;;;;5.85;2.90;;;2.20;99.90;;;;;;5093143;28;20043;-63
2022/04/03 00:02:39;;;;;;;5.97;2.75;;;2.00;99.90;;;;;;5111547;28;20499;-63
2022/04/03 00:05:05;;;;;;;5.03;2.75;;;1.90;99.90;;;;;;5111678;28;20087;-62
2022/04/03 00:07:32;;;;;;;4.60;2.47;;;1.90;99.90;;;;;;5111222;28;20161;-62
2022/04/03 00:09:58;;;;;;;4.70;2.90;;;1.90;99.90;;;;;;5111083;28;20051;-63
2022/04/03 00:12:24;;;;;;;4.70;2.80;;;1.90;99.90;;;;;;5092571;28;20044;-63
2022/04/03 00:14:51;;;;;;;6.32;2.78;;;1.90;99.90;;;;;;5111201;28;20465;-63
2022/04/03 00:17:17;;;;;;;6.40;3.35;;;1.80;99.90;;;;;;5092844;28;20484;-64
2022/04/03 00:19:42;;;;;;;4.50;2.60;;;1.80;99.90;;;;;;5113542;28;20140;-63
2022/04/03 00:22:12;;;;;;;5.75;2.85;;;1.80;99.90;;;;;;5114869;28;20386;-63
2022/04/03 00:24:38;;;;;;;3.85;2.10;;;2.10;99.90;;;;;;5114999;28;20051;-64
2022/04/03 00:27:04;;;;;;;3.97;2.63;;;1.80;99.90;;;;;;5115147;28;20052;-64
2022/04/03 00:29:30;;;;;;;6.57;2.83;;;1.80;99.90;;;;;;5096460;28;20142;-62
2022/04/03 00:31:56;;;;;;;6.80;2.42;;;1.70;99.90;;;;;;5114198;28;20537;-63
2022/04/03 00:34:23;;;;;;;4.80;3.00;;;1.80;99.90;;;;;;5114110;28;20088;-63
2022/04/03 00:36:49;;;;;;;7.65;2.65;;;1.70;99.90;;;;;;5114540;28;20407;-63
2022/04/03 00:39:14;;;;;;;6.50;2.45;;;1.70;99.90;;;;;;5114474;28;20050;-64
2022/04/03 00:41:41;;;;;;;5.07;2.47;;;1.70;99.90;;;;;;5096496;28;20042;-63
2022/04/03 00:44:07;;;;;;;5.18;2.65;;;1.70;99.90;;;;;;5096790;28;20063;-63
2022/04/03 00:46:34;;;;;;;5.47;2.60;;;1.70;99.90;;;;;;5114321;28;20062;-63
2022/04/03 00:49:00;;;;;;;4.70;2.60;;;1.70;99.90;;;;;;5114735;28;20079;-63
2022/04/03 00:51:29;;;;;;;4.65;2.58;;;1.70;99.90;;;;;;5114225;28;20043;-63
2022/04/03 00:53:56;;;;;;;5.60;2.50;;;1.90;99.90;;;;;;5114904;28;20412;-64
2022/04/03 00:56:21;;;;;;;4.88;2.33;;;1.70;99.90;;;;;;5114329;28;20182;-63
2022/04/03 00:58:49;;;;;;;5.90;3.03;;;1.60;99.90;;;;;;5114634;28;20122;-64
2022/04/03 01:01:14;;;;;;;7.82;2.67;;;1.60;99.90;;;;;;5114557;28;20039;-63
2022/04/03 01:03:40;;;;;;;6.43;2.47;;;1.60;99.90;;;;;;5096105;28;20396;-63
2022/04/03 01:06:06;;;;;;;7.25;2.60;;;2.00;99.90;;;;;;5114541;28;20047;-63
2022/04/03 01:08:33;;;;;;;6.78;2.83;;;1.60;99.90;;;;;;5096064;28;20538;-62
2022/04/03 01:10:58;;;;;;;3.92;2.15;;;2.10;99.90;;;;;;5114120;28;20036;-64
2022/04/03 01:13:25;;;;;;;6.40;2.50;;;1.60;99.90;;;;;;5095591;28;20040;-63
2022/04/03 01:16:00;;;;;;;5.65;2.50;;;1.50;99.90;;;;;;5096310;28;20062;-63
2022/04/03 01:18:27;;;;;;;4.20;2.58;;;1.50;99.90;;;;;;5113919;28;20438;-63
2022/04/03 01:20:53;;;;;;;5.78;2.30;;;1.50;99.90;;;;;;5114114;28;20423;-63
2022/04/03 01:23:25;;;;;;;4.90;2.40;;;1.50;99.90;;;;;;5091705;28;20047;-63
2022/04/03 01:25:51;;;;;;;4.70;2.42;;;1.40;99.90;;;;;;5093744;28;20051;-63
2022/04/03 01:28:16;;;;;;;5.70;2.47;;;1.40;99.90;;;;;;5092494;28;20040;-62
2022/04/03 01:30:42;;;;;;;6.40;2.78;;;1.60;99.90;;;;;;5091886;28;20056;-62
2022/04/03 01:33:08;;;;;;;4.75;2.55;;;1.40;99.90;;;;;;5093338;28;20164;-61
2022/04/03 01:35:33;;;;;;;6.18;2.65;;;2.30;99.90;;;;;;5091693;28;20044;-61
2022/04/03 01:37:59;;;;;;;4.07;2.55;;;1.50;99.90;;;;;;5093101;28;20044;-66
2022/04/03 01:40:25;;;;;;;5.13;2.50;;;1.40;99.90;;;;;;5091828;28;20048;-62
2022/04/03 01:42:50;;;;;;;3.95;2.60;;;1.40;99.90;;;;;;5093134;28;20075;-62
2022/04/03 01:45:16;;;;;;;6.50;2.88;;;1.40;99.90;;;;;;5093074;28;20136;-61
2022/04/03 01:47:42;;;;;;;5.25;2.33;;;1.50;99.90;;;;;;5092608;28;20131;-62
2022/04/03 01:50:08;;;;;;;3.85;2.50;;;2.00;99.90;;;;;;5093080;28;20400;-62
2022/04/03 01:52:34;;;;;;;3.78;2.28;;;1.50;99.90;;;;;;5091135;28;20040;-62
2022/04/03 01:55:00;;;;;;;4.93;2.75;;;1.50;99.90;;;;;;5093000;28;20496;-63
2022/04/03 01:57:26;;;;;;;5.15;2.70;;;1.50;99.90;;;;;;5092608;28;20040;-62
2022/04/03 01:59:52;;;;;;;5.80;2.50;;;1.60;99.90;;;;;;5092909;28;20055;-61
2022/04/03 02:02:18;;;;;;;5.45;2.72;;;1.60;99.90;;;;;;5092690;28;20044;-62
2022/04/03 02:04:45;;;;;;;6.50;2.53;;;1.60;99.90;;;;;;5092354;28;20423;-62
2022/04/03 02:07:11;;;;;;;4.63;2.30;;;1.60;99.90;;;;;;5091393;28;20044;-62
2022/04/03 02:09:37;;;;;;;5.28;2.45;;;1.60;99.90;;;;;;5091258;28;20071;-62
2022/04/03 02:12:04;;;;;;;3.40;2.35;;;1.70;99.90;;;;;;5092460;28;20390;-62
2022/04/03 02:14:30;;;;;;;4.53;2.20;;;1.70;99.90;;;;;;5091275;28;20052;-64
2022/04/03 02:16:57;;;;;;;5.40;2.53;;;2.00;99.90;;;;;;5091403;28;20047;-62
2022/04/03 02:19:25;;;;;;;7.50;2.22;;;1.80;99.90;;;;;;5092627;28;20044;-62
2022/04/03 02:21:51;;;;;;;3.47;2.25;;;2.00;99.90;;;;;;5091049;28;20385;-61
2022/04/03 02:24:18;;;;;;;2.80;1.98;;;1.90;99.90;;;;;;5092228;28;20048;-61
2022/04/03 02:26:44;;;;;;;5.63;2.20;;;1.90;99.90;;;;;;5074352;28;20596;-62
2022/04/03 02:29:10;;;;;;;4.60;2.05;;;1.90;99.90;;;;;;5090910;28;20129;-61
2022/04/03 02:31:36;;;;;;;3.55;1.88;;;1.90;99.90;;;;;;5091922;28;20036;-65
2022/04/03 02:34:04;;;;;;;4.45;2.22;;;2.00;99.90;;;;;;5092090;28;20349;-62
2022/04/03 02:36:29;;;;;;;4.38;2.00;;;2.60;99.90;;;;;;5091886;28;20044;-62
2022/04/03 02:38:55;;;;;;;4.07;2.10;;;2.20;99.90;;;;;;5092140;28;20365;-62
2022/04/03 02:41:20;;;;;;;3.97;1.90;;;2.10;99.90;;;;;;5091912;28;20062;-63
2022/04/03 02:43:46;;;;;;;4.75;2.25;;;2.10;99.90;;;;;;5091739;28;20054;-62
2022/04/03 02:46:12;;;;;;;3.58;2.03;;;2.10;99.90;;;;;;5091550;28;20131;-62
2022/04/03 02:48:38;;;;;;;3.58;1.90;;;2.50;99.90;;;;;;5091717;28;20055;-62
2022/04/03 02:51:04;;;;;;;3.20;1.90;;;2.10;99.90;;;;;;5091844;28;20380;-64
2022/04/03 02:53:29;;;;;;;3.25;1.63;;;1.90;99.90;;;;;;5091427;28;20047;-69
2022/04/03 02:55:55;;;;;;;4.43;1.80;;;1.90;99.90;;;;;;5091749;28;20051;-61
2022/04/03 02:58:21;;;;;;;3.58;1.70;;;1.80;99.90;;;;;;5090760;28;20394;-62
2022/04/03 03:00:46;;;;;;;3.05;1.80;;;1.70;99.90;;;;;;5091385;28;20078;-62
2022/04/03 03:03:12;;;;;;;3.58;1.50;;;1.60;99.90;;;;;;5091859;28;20106;-61
2022/04/03 03:05:41;;;;;;;2.65;1.52;;;1.60;99.90;;;;;;5091518;28;20059;-62
2022/04/03 03:08:07;;;;;;;3.20;1.65;;;1.50;99.90;;;;;;5090801;28;20052;-62
2022/04/03 03:10:33;;;;;;;5.70;1.40;;;1.50;99.90;;;;;;5090151;28;20116;-63
2022/04/03 03:12:59;;;;;;;4.28;1.50;;;1.50;99.90;;;;;;5091818;28;20044;-63
2022/04/03 03:15:25;;;;;;;2.40;1.10;;;1.80;99.90;;;;;;5090344;28;20040;-64
2022/04/03 03:17:51;;;;;;;3.00;1.67;;;1.70;99.90;;;;;;5091280;28;20052;-63
2022/04/03 03:20:17;;;;;;;1.45;1.27;;;1.70;99.90;;;;;;5090181;28;20036;-64
2022/04/03 03:22:45;;;;;;;2.75;1.40;;;1.70;99.90;;;;;;5102540;28;20051;-64
2022/04/03 03:25:11;;;;;;;5.68;1.40;;;1.70;99.90;;;;;;5077225;28;20122;-65
2022/04/03 03:27:39;;;;;;;2.25;1.77;;;1.80;99.90;;;;;;5111618;28;20055;-64
2022/04/03 03:30:06;;;;;;;4.13;1.60;;;1.80;99.90;;;;;;5111773;28;20130;-64
2022/04/03 03:32:32;;;;;;;3.17;1.60;;;1.80;99.90;;;;;;5111628;28;20404;-65
2022/04/03 03:34:59;;;;;;;3.00;1.50;;;1.80;99.90;;;;;;5093311;28;20062;-64
2022/04/03 03:37:25;;;;;;;3.25;1.70;;;1.80;99.90;;;;;;5111735;28;20047;-63
2022/04/03 03:39:53;;;;;;;3.90;1.50;;;1.90;99.90;;;;;;5111164;28;20156;-64
2022/04/03 03:42:19;;;;;;;4.15;1.60;;;1.80;99.90;;;;;;5111612;28;20121;-63
2022/04/03 03:44:45;;;;;;;3.35;1.65;;;1.90;99.90;;;;;;5092963;28;20097;-63
2022/04/03 03:47:11;;;;;;;4.00;1.42;;;2.00;99.90;;;;;;5111569;28;20047;-62
2022/04/03 03:49:37;;;;;;;2.35;1.60;;;1.90;99.90;;;;;;5111363;28;20055;-63
2022/04/03 03:52:03;;;;;;;2.08;1.38;;;1.90;99.90;;;;;;5111399;28;20449;-65
2022/04/03 03:54:29;;;;;;;3.50;1.70;;;1.90;99.90;;;;;;5113142;28;20079;-62
2022/04/03 03:56:55;;;;;;;3.15;1.63;;;1.80;99.90;;;;;;5115158;28;20083;-62
2022/04/03 03:59:21;;;;;;;2.67;1.50;;;1.80;99.90;;;;;;5115348;28;20136;-62
2022/04/03 04:01:47;;;;;;;1.90;1.55;;;1.80;99.90;;;;;;5115101;28;20122;-62
2022/04/03 04:04:12;;;;;;;2.83;1.88;;;1.80;99.90;;;;;;5115424;28;20043;-62
2022/04/03 04:06:38;;;;;;;4.28;2.38;;;1.80;99.90;;;;;;5115292;28;20063;-69
2022/04/03 04:09:04;;;;;;;5.60;2.20;;;2.00;99.90;;;;;;5115744;28;20043;-62
2022/04/03 04:11:30;;;;;;;4.00;2.30;;;1.70;99.90;;;;;;5115137;28;20044;-64
2022/04/03 04:13:56;;;;;;;3.35;2.10;;;1.40;99.90;;;;;;5114956;28;20044;-62
2022/04/03 04:16:22;;;;;;;3.60;2.08;;;1.70;99.90;;;;;;5115069;28;20090;-62
2022/04/03 04:18:48;;;;;;;5.70;2.45;;;1.70;99.90;;;;;;5115123;28;20051;-62
2022/04/03 04:21:15;;;;;;;5.28;2.33;;;1.70;99.90;;;;;;5115070;28;20550;-65
2022/04/03 04:23:41;;;;;;;4.20;2.00;;;1.80;99.90;;;;;;5114900;28;20070;-63
2022/04/03 04:26:06;;;;;;;4.22;2.50;;;1.70;99.90;;;;;;5115173;28;20043;-62
2022/04/03 04:28:32;;;;;;;6.22;2.38;;;2.00;99.90;;;;;;5115077;28;20059;-65
2022/04/03 04:30:58;;;;;;;3.65;2.10;;;1.70;99.90;;;;;;5114488;28;20043;-63
2022/04/03 04:33:25;;;;;;;4.35;2.20;;;1.70;99.90;;;;;;5080093;28;20138;-65
2022/04/03 04:35:51;;;;;;;3.83;2.47;;;1.70;99.90;;;;;;5096593;28;20079;-64
2022/04/03 04:38:17;;;;;;;5.82;2.30;;;1.60;99.90;;;;;;5096652;28;20504;-62
2022/04/03 04:40:44;;;;;;;2.75;2.00;;;1.60;99.90;;;;;;5114140;28;20122;-62
2022/04/03 04:43:10;;;;;;;4.13;2.28;;;1.70;99.90;;;;;;5096889;28;20083;-63
2022/04/03 04:45:36;;;;;;;5.97;2.40;;;1.60;99.90;;;;;;5079519;28;20105;-63
2022/04/03 04:48:02;;;;;;;5.63;2.30;;;1.60;99.90;;;;;;5096200;28;20044;-62
2022/04/03 04:50:29;;;;;;;4.28;2.30;;;1.50;99.90;;;;;;5114530;28;20043;-65
2022/04/03 04:52:56;;;;;;;4.70;2.40;;;1.70;99.90;;;;;;5095828;28;20130;-63
2022/04/03 04:55:23;;;;;;;4.68;2.38;;;1.50;99.90;;;;;;5114466;28;20044;-62
2022/04/03 04:57:51;;;;;;;5.00;2.40;;;1.40;99.90;;;;;;5114033;28;20039;-63
2022/04/03 05:00:17;;;;;;;5.72;2.33;;;1.40;99.90;;;;;;5114230;28;20469;-62
2022/04/03 05:02:46;;;;;;;6.50;2.42;;;1.40;99.90;;;;;;5114343;28;20046;-63
2022/04/03 05:05:15;;;;;;;8.70;3.05;;;1.60;99.90;;;;;;5095242;28;20047;-62
2022/04/03 05:07:43;;;;;;;4.57;2.95;;;1.40;99.90;;;;;;5095775;28;20040;-62
2022/04/03 05:10:09;;;;;;;3.75;2.70;;;1.50;99.90;;;;;;5095371;28;20048;-62
2022/04/03 05:12:36;;;;;;;6.15;2.67;;;1.40;99.90;;;;;;5114196;28;20089;-64
2022/04/03 05:15:02;;;;;;;6.47;2.80;;;1.40;99.90;;;;;;5095522;28;20097;-62
2022/04/03 05:17:28;;;;;;;6.43;2.58;;;1.40;99.90;;;;;;5113921;28;20050;-62
2022/04/03 05:19:54;;;;;;;6.05;3.33;;;1.40;99.90;;;;;;5061839;28;20043;-65
2022/04/03 05:22:23;;;;;;;5.72;2.40;;;1.40;99.90;;;;;;5113528;28;20062;-64
2022/04/03 05:24:50;;;;;;;4.95;2.53;;;1.40;99.90;;;;;;5113466;28;20100;-62
2022/04/03 05:27:16;;;;;;;5.60;2.42;;;1.50;99.90;;;;;;5113835;28;20138;-63
2022/04/03 05:29:43;;;;;;;4.22;2.20;;;1.50;99.90;;;;;;5113474;28;20042;-62
2022/04/03 05:32:09;;;;;;;5.32;2.20;;;1.50;99.90;;;;;;5113283;28;20043;-62
2022/04/03 05:34:34;;;;;;;4.82;2.08;;;1.50;99.90;;;;;;5095556;28;20035;-62
2022/04/03 05:37:00;;;;;;;5.22;2.40;;;1.50;99.90;;;;;;5094928;28;20490;-64
2022/04/03 05:39:29;;;;;;;6.35;2.40;;;1.50;99.90;;;;;;5113377;28;20043;-62
2022/04/03 05:41:55;;;;;;;4.63;2.20;;;1.60;99.90;;;;;;5095195;28;20059;-62
2022/04/03 05:44:24;;;;;;;4.30;2.25;;;2.20;99.90;;;;;;5095386;28;20043;-63
2022/04/03 05:46:51;;;;;;;4.60;2.13;;;1.60;99.90;;;;;;5094747;28;20035;-69
2022/04/03 05:49:17;;;;;;;6.97;2.60;;;1.70;99.90;;;;;;5112801;28;20044;-65
2022/04/03 05:51:44;;;;;;;5.30;2.22;;;1.80;99.90;;;;;;5113200;28;20035;-62
2022/04/03 05:54:10;;;;;;;3.85;2.30;;;2.00;99.90;;;;;;5112977;28;20054;-63
2022/04/03 05:56:37;;;;;;;4.72;2.33;;;2.60;99.90;;;;;;5113048;28;20047;-63
2022/04/03 05:59:02;;;;;;;4.90;2.20;;;3.20;99.90;;;;;;5112797;28;20126;-64
2022/04/03 06:01:28;;;;;;;6.80;2.15;;;3.80;99.90;;;;;;5095032;28;20126;-63
2022/04/03 06:03:54;;;;;;;3.95;2.10;;;4.30;99.90;;;;;;5112767;28;20438;-62
2022/04/03 06:06:20;;;;;;;5.70;2.00;;;4.90;99.90;;;;;;5112703;28;20043;-62
2022/04/03 06:08:45;;;;;;;6.05;1.75;;;5.50;99.90;;;;;;5113396;28;20297;-62
2022/04/03 06:11:11;;;;;;;4.65;1.70;;;5.70;99.90;;;;;;5112593;28;20043;-63
2022/04/03 06:13:37;;;;;;;4.43;2.13;;;5.60;99.90;;;;;;5094802;28;20077;-64
2022/04/03 06:16:03;;;;;;;3.22;1.83;;;5.30;99.90;;;;;;5112480;28;20575;-63
2022/04/03 06:18:29;;;;;;;5.10;1.83;;;4.90;99.90;;;;;;5112899;28;20063;-63
2022/04/03 06:20:55;;;;;;;2.83;1.77;;;4.70;99.90;;;;;;5112337;28;20082;-63
2022/04/03 06:23:22;;;;;;;5.35;1.98;;;4.50;99.90;;;;;;5094457;28;20056;-62
2022/04/03 06:25:57;;;;;;;3.28;1.80;;;4.30;99.90;;;;;;5112718;28;20055;-64
2022/04/03 06:28:25;;;;;;;5.75;1.80;;;4.20;99.90;;;;;;5112888;28;20050;-64
2022/04/03 06:30:51;;;;;;;4.15;1.90;;;4.10;99.90;;;;;;5112505;28;20389;-63
2022/04/03 06:33:17;;;;;;;3.47;1.67;;;4.00;99.90;;;;;;5094214;28;20513;-66
2022/04/03 06:35:44;;;;;;;4.18;1.80;;;3.90;99.90;;;;;;5112480;28;20100;-68
2022/04/03 06:38:10;;;;;;;4.65;1.98;;;4.10;99.90;;;;;;5112151;28;20047;-62
2022/04/03 06:40:37;;;;;;;4.00;2.05;;;4.20;99.90;;;;;;5112324;28;20048;-63
2022/04/03 06:43:03;;;;;;;3.85;1.80;;;4.80;99.90;;;;;;5093685;28;20083;-63
2022/04/03 06:45:29;;;;;;;5.57;2.63;;;5.50;99.90;;;;;;5094401;28;20493;-64
2022/04/03 06:48:00;;;;;;;5.45;2.42;;;6.00;99.90;;;;;;5093891;28;20039;-63
2022/04/03 06:50:26;;;;;;;4.20;1.90;;;6.60;99.90;;;;;;5112204;28;20043;-63
2022/04/03 06:52:52;;;;;;;6.28;2.20;;;7.30;99.90;;;;;;5094166;28;20378;-63
2022/04/03 06:55:18;;;;;;;5.03;2.20;;;7.90;99.90;;;;;;5093892;28;20432;-63
2022/04/03 06:57:43;;;;;;;4.65;2.08;;;8.40;99.90;;;;;;5077216;28;20077;-64
2022/04/03 07:00:11;;;;;;;6.07;1.98;;;8.90;99.90;;;;;;5111863;28;20044;-62
2022/04/03 07:02:37;;;;;;;6.68;3.20;;;9.10;99.90;;;;;;5112125;28;20382;-63
2022/04/03 07:05:04;;;;;;;7.57;3.13;;;9.30;99.90;;;;;;5093732;28;20043;-62
2022/04/03 07:07:30;;;;;;;5.95;3.40;;;9.50;99.90;;;;;;5112062;28;20131;-64
2022/04/03 07:09:56;;;;;;;8.65;3.00;;;9.60;99.90;;;;;;5093896;28;20497;-62
2022/04/03 07:12:22;;;;;;;5.43;1.95;;;9.90;99.90;;;;;;5093446;28;20528;-63
2022/04/03 07:14:48;;;;;;;2.17;1.25;;;10.20;99.90;;;;;;5111998;28;20055;-62
2022/04/03 07:17:15;;;;;;;3.58;1.42;;;10.70;99.90;;;;;;5111699;28;20433;-65
2022/04/03 07:19:40;;;;;;;5.68;1.75;;;11.10;99.90;;;;;;5111965;28;20184;-62
2022/04/03 07:22:06;;;;;;;2.35;1.30;;;11.30;99.90;;;;;;5111519;28;20134;-62
2022/04/03 07:24:32;;;;;;;2.90;1.35;;;11.50;99.90;;;;;;5111806;28;20416;-65
2022/04/03 07:26:58;;;;;;;5.05;1.50;;;11.30;99.90;;;;;;5112037;28;20130;-64
2022/04/03 07:29:24;;;;;;;2.47;1.10;;;10.80;99.90;;;;;;5110753;28;20040;-63
2022/04/03 07:31:50;;;;;;;5.30;1.15;;;10.70;99.90;;;;;;5111693;28;20043;-64
2022/04/03 07:34:16;;;;;;;2.63;1.02;;;10.80;99.90;;;;;;5111394;28;20047;-63
2022/04/03 07:36:42;;;;;;;3.58;1.10;;;11.20;99.90;;;;;;5111763;28;20143;-62
2022/04/03 07:39:12;;;;;;;1.70;0.80;;;11.40;99.90;;;;;;5093319;28;20083;-63
2022/04/03 07:41:38;;;;;;;1.52;0.70;;;11.90;99.90;;;;;;5111569;28;20089;-63
2022/04/03 07:44:05;;;;;;;1.50;0.73;;;12.60;99.90;;;;;;5111093;28;20126;-66
2022/04/03 07:46:31;;;;;;;1.70;0.80;;;13.10;99.90;;;;;;5111160;28;20048;-63
2022/04/03 07:48:56;;;;;;;3.78;1.30;;;13.50;99.90;;;;;;5093269;28;20362;-62
2022/04/03 07:51:23;;;;;;;3.63;0.90;;;14.10;98.10;;;;;;5092799;28;20134;-63
2022/04/03 07:53:49;;;;;;;3.88;1.13;;;14.90;97.30;;;;;;5093468;28;20047;-65
2022/04/03 07:56:16;;;;;;;2.95;1.10;;;15.10;96.40;;;;;;5110792;28;20066;-63
2022/04/03 07:58:42;;;;;;;3.55;1.35;;;15.10;95.40;;;;;;5111378;28;20354;-63
2022/04/03 08:01:08;;;;;;;1.90;1.10;;;15.30;94.60;;;;;;5092952;28;20043;-63
2022/04/03 08:03:34;;;;;;;5.10;1.33;;;15.40;94.90;;;;;;5111280;28;20043;-63
2022/04/03 08:05:59;;;;;;;1.40;0.80;;;15.30;94.60;;;;;;5111395;28;20173;-63
2022/04/03 08:08:25;;;;;;;5.38;1.30;;;15.60;93.80;;;;;;5110767;28;20414;-63
2022/04/03 08:10:51;;;;;;;3.30;1.42;;;16.20;93.80;;;;;;5111249;28;20054;-63
2022/04/03 08:13:17;;;;;;;3.17;1.20;;;16.30;91.90;;;;;;5111067;28;20050;-63
2022/04/03 08:15:43;;;;;;;3.38;1.30;;;16.30;91.80;;;;;;5093397;28;20044;-63
2022/04/03 08:18:08;;;;;;;2.80;1.13;;;16.00;91.80;;;;;;5111147;28;20044;-63
2022/04/03 08:20:35;;;;;;;3.47;1.48;;;15.70;92.20;;;;;;5076145;28;20052;-62
2022/04/03 08:23:03;;;;;;;4.85;1.20;;;14.70;93.70;;;;;;5110576;28;20055;-64
2022/04/03 08:25:36;;;;;;;3.90;1.25;;;13.70;94.70;;;;;;5110612;28;20138;-62
2022/04/03 08:28:02;;;;;;;2.28;1.10;;;12.70;97.20;;;;;;5111250;28;20059;-62
2022/04/03 08:30:30;;;;;;;3.95;1.25;;;12.40;98.00;;;;;;5110550;28;20409;-66
2022/04/03 08:32:57;;;;;;;3.95;1.20;;;11.80;98.50;;;;;;5111306;28;20058;-63
2022/04/03 08:35:24;;;;;;;4.88;1.20;;;11.50;99.50;;;;;;5110866;28;20055;-62
2022/04/03 08:37:50;;;;;;;2.15;1.10;;;11.20;99.30;;;;;;5111190;28;20055;-66
2022/04/03 08:40:18;;;;;;;2.67;1.00;;;11.20;99.40;;;;;;5093843;28;20059;-63
2022/04/03 08:42:43;;;;;;;3.90;1.10;;;11.80;98.90;;;;;;5114766;28;20049;-63
2022/04/03 08:45:11;;;;;;;2.88;0.98;;;12.70;97.60;;;;;;5114894;28;20048;-62
2022/04/03 08:47:46;;;;;;;4.38;1.25;;;13.70;97.20;;;;;;5114943;28;20130;-62
2022/04/03 08:50:13;;;;;;;2.72;1.10;;;14.30;96.00;;;;;;5114415;28;20489;-64
2022/04/03 08:52:45;;;;;;;5.15;1.58;;;14.40;94.50;;;;;;5096494;28;20051;-62
2022/04/03 08:55:11;;;;;;;2.25;1.10;;;14.60;94.60;;;;;;5096649;28;20437;-63
2022/04/03 08:57:37;;;;;;;2.10;0.70;;;15.30;94.00;;;;;;5114023;28;20047;-64
2022/04/03 09:00:04;;;;;;;2.83;1.10;;;15.50;91.60;;;;;;5114314;28;20453;-62
2022/04/03 09:02:30;;;;;;;5.10;1.05;;;14.90;90.70;;;;;;5113880;28;20369;-62
2022/04/03 09:04:56;;;;;;;5.30;1.25;;;14.10;91.50;;;;;;5114367;28;20051;-64
2022/04/03 09:07:21;;;;;;;2.45;1.15;;;14.00;93.30;;;;;;5095661;28;20132;-63
2022/04/03 09:09:58;;;;;;;3.58;1.23;;;13.90;93.10;;;;;;5113761;28;20101;-62
2022/04/03 09:12:24;;;;;;;2.15;0.90;;;12.90;93.20;;;;;;5113746;28;20130;-64
2022/04/03 09:14:54;;;;;;;3.95;1.40;;;12.20;94.50;;;;;;5113940;28;20040;-62
2022/04/03 09:17:44;;;;;;;3.90;1.15;;;11.60;95.70;;;;;;5113309;28;20070;-62
2022/04/03 09:20:20;;;;;;;3.17;1.10;;;11.50;96.00;;;;;;5078905;28;20058;-63
2022/04/03 09:22:53;;;;;;;3.85;1.00;;;12.50;95.20;;;;;;5113665;28;20105;-61
2022/04/03 09:25:30;;;;;;;3.03;0.90;;;13.70;93.80;;;;;;5113370;28;20069;-63
2022/04/03 09:27:58;;;;;;;3.55;1.02;;;14.20;92.90;;;;;;5114018;28;20051;-63
2022/04/03 09:30:33;;;;;;;3.30;0.90;;;14.00;92.40;;;;;;5113611;28;20047;-62
2022/04/03 09:32:59;;;;;;;2.88;1.02;;;13.40;91.10;;;;;;5113936;28;20047;-62
2022/04/03 09:35:31;;;;;;;1.50;0.80;;;13.10;92.10;;;;;;5095512;28;20050;-61
2022/04/03 09:38:10;;;;;;;3.90;1.10;;;12.50;92.60;;;;;;5113601;28;20047;-64
2022/04/03 09:40:44;;;;;;;3.28;1.13;;;11.90;93.40;;;;;;5112528;28;20393;-62
2022/04/03 09:43:22;;;;;;;;;;;11.40;94.40;;;;;;5113513;28;20427;-61
2022/04/03 09:45:51;;;;;;;3.08;1.13;;;11.20;94.50;;;;;;5113505;28;19923;-62
2022/04/03 09:48:21;;;;;;;1.80;0.80;;;11.00;95.00;;;;;;5113631;28;20047;-65
2022/04/03 09:50:55;;;;;;;5.45;0.90;;;11.00;92.20;;;;;;5095237;28;20485;-62
2022/04/03 09:53:24;;;;;;;2.80;0.70;;;10.90;91.80;;;;;;5113003;28;20062;-62
2022/04/03 09:55:49;;;;;;;1.90;0.55;;;11.00;92.80;;;;;;5113457;28;20036;-61
2022/04/03 09:58:16;;;;;;;1.00;0.63;;;11.10;93.20;;;;;;5113300;28;20393;-65
2022/04/03 10:00:42;;;;;;;1.15;0.65;;;11.30;92.50;;;;;;5112827;28;20135;-61
2022/04/03 10:03:13;;;;;;;1.83;0.88;;;11.20;91.00;;;;;;5113006;28;20052;-62
2022/04/03 10:05:39;;;;;;;2.00;1.08;;;11.50;93.90;;;;;;5112578;28;20160;-62
2022/04/03 10:08:06;;;;;;;3.85;1.13;;;11.70;94.90;;;;;;5113205;28;20485;-65
2022/04/03 10:10:34;;;;;;;3.10;1.00;;;11.80;94.00;;;;;;5112623;28;20050;-61
2022/04/03 10:13:01;;;;;;;5.63;1.30;;;11.60;94.90;;;;;;5112771;28;20079;-62
2022/04/03 10:15:28;;;;;;;3.60;1.23;;;11.50;96.50;;;;;;5112356;28;20044;-62
2022/04/03 10:17:55;;;;;;;3.75;1.30;;;11.40;96.50;;;;;;5112480;28;20565;-61
2022/04/03 10:20:28;;;;;;;1.85;1.17;;;11.30;97.20;;;;;;5112627;28;20040;-61
2022/04/03 10:23:03;;;;;;;4.07;1.50;;;11.10;97.30;;;;;;5093875;28;20085;-62
2022/04/03 10:25:36;;;;;;;8.20;1.70;;;11.20;98.30;;;;;;5111949;28;20059;-68
2022/04/03 10:28:03;;;;;;;3.05;1.05;;;11.20;98.40;;;;;;5112715;28;20051;-62
2022/04/03 10:30:43;;;;;;;2.40;0.93;;;11.20;94.60;;;;;;5111797;28;20079;-62
2022/04/03 10:33:19;;;;;;;2.72;1.00;;;11.40;95.40;;;;;;5112028;28;20126;-62
2022/04/03 10:36:07;;;;;;;3.22;1.38;;;11.40;95.70;;;;;;5111633;28;20123;-66
2022/04/03 10:38:44;;;;;;;3.65;1.05;;;11.10;94.70;;;;;;5111487;28;20050;-67
2022/04/03 10:41:31;;;;;;;3.25;1.42;;;11.10;95.00;;;;;;5111913;28;20112;-62
2022/04/03 10:44:22;;;;;;;2.90;1.20;;;11.20;94.50;;;;;;5094016;28;20066;-62
2022/04/03 10:47:03;;;;;;;2.25;0.85;;;11.10;94.10;;;;;;5065016;28;20152;-64
2022/04/03 10:49:30;;;;;;;2.42;1.15;;;10.70;97.80;;;;;;5093369;28;20043;-63
2022/04/03 10:52:03;;;;;;;2.72;1.23;;;10.10;99.90;;;;;;5112102;28;20075;-63
2022/04/03 10:54:31;;;;;;;4.00;1.10;;;9.40;99.90;;;;;;5111108;28;20043;-62
2022/04/03 10:57:37;;;;;;;2.30;0.90;;;8.90;99.90;;;;;;5111935;28;20069;-63
2022/04/03 11:00:29;;;;;;;2.70;1.10;;;8.40;99.90;;;;;;5111665;28;20118;-63
2022/04/03 11:02:55;;;;;;;4.40;1.08;;;8.10;99.90;;;;;;5081923;28;20159;-62
2022/04/03 11:05:26;;;;;;;1.80;0.70;;;8.00;99.90;;;;;;5111217;28;20563;-63
2022/04/03 11:08:01;;;;;;;3.53;1.15;;;8.00;99.90;;;;;;5111644;28;20054;-63
2022/04/03 11:11:06;;;;;;;3.13;0.88;;;8.10;99.90;;;;;;5111639;28;20420;-63
2022/04/03 11:13:35;;;;;;;1.15;1.00;;;8.30;99.90;;;;;;5093396;28;20050;-63
2022/04/03 11:16:02;;;;;;;3.15;1.30;;;8.50;99.90;;;;;;5094993;28;20062;-63
2022/04/03 11:18:28;;;;;;;3.45;1.50;;;8.60;99.90;;;;;;5093659;28;20051;-63
2022/04/03 11:21:31;;;;;;;2.55;1.00;;;8.70;99.90;;;;;;5111601;28;20039;-63
2022/04/03 11:24:12;;;;;;;3.10;1.20;;;8.80;99.90;;;;;;5093264;28;20108;-62
2022/04/03 11:26:39;;;;;;;2.72;1.10;;;9.00;99.90;;;;;;5111173;28;20062;-62
2022/04/03 11:29:09;;;;;;;2.90;1.10;;;9.20;99.90;;;;;;5111556;28;20048;-62
2022/04/03 11:31:38;;;;;;;2.53;1.00;;;9.50;99.90;;;;;;5092991;28;20044;-62
2022/04/03 11:34:06;;;;;;;4.18;1.70;;;9.50;99.90;;;;;;5093331;28;20043;-61
2022/04/03 11:36:33;;;;;;;3.10;0.90;;;9.60;99.90;;;;;;5111150;28;20084;-62
2022/04/03 11:39:00;;;;;;;4.25;1.10;;;9.70;99.90;;;;;;5111441;28;20272;-62
2022/04/03 11:41:31;;;;;;;2.85;1.35;;;9.50;99.90;;;;;;5110995;28;20429;-65
2022/04/03 11:44:00;;;;;;;3.33;1.10;;;9.70;99.90;;;;;;5110741;28;20500;-67
2022/04/03 11:46:35;;;;;;;2.42;1.10;;;9.70;99.90;;;;;;5110680;28;20040;-61
2022/04/03 11:49:01;;;;;;;1.73;1.17;;;9.80;99.90;;;;;;5110765;28;20093;-62
2022/04/03 11:51:26;;;;;;;4.32;1.00;;;9.80;99.90;;;;;;5110639;28;20051;-62
2022/04/03 11:53:59;;;;;;;4.82;1.35;;;9.80;99.90;;;;;;5092109;28;20047;-62
2022/04/03 11:56:25;;;;;;;3.92;1.48;;;9.90;99.90;;;;;;5110335;28;20052;-63
2022/04/03 11:58:56;;;;;;;1.58;1.00;;;9.80;99.90;;;;;;5110421;28;20043;-64
2022/04/03 12:01:26;;;;;;;2.47;1.35;;;9.60;99.90;;;;;;5111193;28;20047;-64
2022/04/03 12:04:22;;;;;;;4.32;1.50;;;9.70;99.90;;;;;;5110907;28;20048;-62
2022/04/03 12:06:58;;;;;;;2.63;1.20;;;9.80;99.90;;;;;;5089952;28;20062;-65
2022/04/03 12:09:26;;;;;;;2.75;1.17;;;10.00;99.90;;;;;;5110937;28;20088;-64
2022/04/03 12:11:53;;;;;;;1.70;1.02;;;10.20;99.90;;;;;;5110159;28;20044;-64
2022/04/03 12:14:22;;;;;;;2.60;1.00;;;10.30;99.80;;;;;;5110626;28;20108;-63
2022/04/03 12:16:55;;;;;;;2.25;0.98;;;10.30;97.80;;;;;;5114024;28;20044;-64
2022/04/03 12:19:21;;;;;;;2.28;0.95;;;10.10;99.30;;;;;;5096656;28;20082;-67
2022/04/03 12:21:49;;;;;;;3.45;1.05;;;9.90;99.40;;;;;;5096310;28;20109;-62
2022/04/03 12:24:16;;;;;;;2.83;1.20;;;9.80;99.80;;;;;;5114521;28;20044;-62
2022/04/03 12:26:50;;;;;;;3.50;1.42;;;9.60;99.90;;;;;;5113883;28;20051;-62
2022/04/03 12:29:17;;;;;;;4.05;1.00;;;9.60;99.90;;;;;;5096552;28;20048;-69
2022/04/03 12:31:44;;;;;;;5.20;1.30;;;9.70;99.90;;;;;;5095818;28;20078;-62
2022/04/03 12:34:17;;;;;;;3.70;1.08;;;9.70;99.90;;;;;;5096429;28;20052;-63
2022/04/03 12:36:50;;;;;;;4.70;1.13;;;9.60;99.90;;;;;;5113890;28;20052;-62
2022/04/03 12:39:51;;;;;;;3.55;1.05;;;9.60;99.90;;;;;;5114181;28;20392;-64
2022/04/03 12:42:24;;;;;;;4.15;1.33;;;9.60;99.90;;;;;;5095783;28;20051;-63
2022/04/03 12:45:10;;;;;;;3.05;1.35;;;9.40;99.90;;;;;;5113729;28;20052;-62
2022/04/03 12:47:41;;;;;;;3.67;1.30;;;9.30;99.90;;;;;;5113630;28;20127;-62
2022/04/03 12:50:06;;;;;;;2.70;1.10;;;9.50;99.90;;;;;;5113648;28;20051;-65
2022/04/03 12:52:56;;;;;;;3.10;1.00;;;9.60;99.90;;;;;;5113678;28;20536;-64
2022/04/03 12:55:24;;;;;;;2.42;1.10;;;9.60;99.90;;;;;;5113803;28;20484;-63
2022/04/03 13:00:52;;;;;;;3.88;1.25;;;9.60;99.90;;;;;;5113573;28;20141;-62
2022/04/03 13:03:26;;;;;;;3.13;1.00;;;9.80;99.90;;;;;;5113500;28;20624;-63